La Palma > ESTACION METEOROLÓGICA La Bombilla - Tazacorte

DATOS ACTUALES Online

Ultima actulizacion 1 h 29 minutos

19.5 ºC

Temperatura

74

Humedad (%)

1017.1

Presión (mb)

0

Precipitación (mm)

1.7 W

Viento (Km/h)

DATOS DIARIOS

Temperatura últimas 24 horas (ºC)

Humedad últimas 24 horas (%)

Presión atmosférica últimas 24 horas (mb)

Precipitaciones últimas 23 horas (mm)

Viento últimas 24 horas (Km/h)

Hora Temperatura (°C) ºC Precipitación (mm) mm Presión (mb) mb Humedad (%) % Viento (Km/h) km/h
29 - 00:00 19.8 0 1018 63 1.5 SO
29 - 01:00 19.3 0 1018 64 2.3 O
29 - 02:00 19.1 0 1018 66 2 SO
29 - 03:00 18.7 0 1017 67 2.5 O
29 - 04:00 18.3 0 1017 68 2.8 O
29 - 05:00 18.3 0 1017 69 2.2 O
29 - 06:00 18.9 0 1017 71 1.8 O
29 - 07:00 19.3 0 1017 70 1.8 SO
29 - 08:00 19.6 0 1017 70 0.7 SO
29 - 09:00 20.2 0 1018 68 0.3 W
29 - 10:00 20.4 0 1018 69 2.1 NW
29 - 11:00 20.6 0 1018 64 2.6 NW
29 - 12:00 21.4 0 1018 60 2.6 NW
29 - 13:00 22.3 0 1018 57 2.7 NW
29 - 14:00 22.9 0 1018 54 2.9 NW
29 - 15:00 23.3 0 1017 55 3.9 NW
29 - 16:00 23.7 0 1017 56 4.4 NW
29 - 17:00 22.5 0 1017 62 3.8 NW
29 - 18:00 21.7 0 1017 64 3.4 NW
29 - 19:00 20.9 0 1017 68 3 NW
29 - 20:00 21.5 0 1017 65 3.2 NW
29 - 21:00 20.2 0 1017 67 3.2 NW
29 - 22:00 19.9 0 1017 66 3 NW
29 - 23:00 19.5 0 1017 74 1.7 W
30 - 00:00
Apalmet utiliza cookies propias y de terceros para mejorar la usabilidad y la experiencia web. Política de cookies.